Time;durP1;ratioP1;P1;durP2;ratioP2;P2;SDS_P1;SDS_P2;PMS_P1;PMS_P2;Temp;Humidity;BMP_temperature;BMP_pressure;BME280_temperature;BME280_humidity;BME280_pressure;Samples;Min_cycle;Max_cycle;Signal;HPM_P1;HPM_P2
2023/08/17 00:02:00;;;;;;;4.05;2.53;;;;;;;17.13;100.00;101980.34;5111301;28;20104;-46
2023/08/17 00:04:25;;;;;;;6.10;2.55;;;;;;;17.18;100.00;102000.50;5112625;28;20126;-46
2023/08/17 00:06:51;;;;;;;4.57;2.47;;;;;;;16.49;100.00;101881.88;5110714;28;20401;-47
2023/08/17 00:09:16;;;;;;;3.30;2.55;;;;;;;16.92;100.00;101955.50;5110776;28;20042;-50
2023/08/17 00:11:41;;;;;;;5.28;2.50;;;;;;;16.88;100.00;101941.44;5112235;28;20073;-47
2023/08/17 00:14:06;;;;;;;3.15;2.30;;;;;;;16.91;100.00;101956.41;5111122;28;20080;-48
2023/08/17 00:16:32;;;;;;;4.72;2.85;;;;;;;16.83;100.00;101938.13;5111006;28;20084;-45
2023/08/17 00:18:57;;;;;;;5.10;2.60;;;;;;;17.20;100.00;102019.94;5112111;28;20035;-45
2023/08/17 00:21:23;;;;;;;5.65;2.35;;;;;;;17.27;100.00;102036.50;5112214;28;20489;-46
2023/08/17 00:23:49;;;;;;;3.85;2.58;;;;;;;17.24;100.00;102023.34;5110985;28;20104;-47
2023/08/17 00:26:14;;;;;;;9.02;2.63;;;;;;;16.81;100.00;101941.78;5110549;28;20038;-47
2023/08/17 00:28:40;;;;;;;5.03;2.55;;;;;;;17.02;100.00;101983.44;5111702;28;20031;-49
2023/08/17 00:31:05;;;;;;;4.40;2.50;;;;;;;17.21;100.00;102008.38;5111877;28;20027;-48
2023/08/17 00:33:30;;;;;;;2.90;2.55;;;;;;;16.74;100.00;101940.28;5113994;28;20172;-47
2023/08/17 00:35:56;;;;;;;6.25;2.85;;;;;;;17.15;100.00;102021.03;5116382;28;20391;-51
2023/08/17 00:38:21;;;;;;;5.28;2.40;;;;;;;17.00;100.00;101995.94;5115594;28;20119;-47
2023/08/17 00:40:47;;;;;;;6.18;2.88;;;;;;;17.08;100.00;102017.75;5115009;28;20085;-48
2023/08/17 00:43:12;;;;;;;8.50;2.90;;;;;;;16.99;100.00;102007.50;5115915;28;20031;-46
2023/08/17 00:45:37;;;;;;;4.72;2.75;;;;;;;16.97;100.00;102008.47;5114671;28;20528;-45
2023/08/17 00:48:07;;;;;;;8.63;2.72;;;;;;;16.86;100.00;101993.84;5115570;28;20370;-50
2023/08/17 00:50:33;;;;;;;5.80;2.35;;;;;;;16.93;100.00;102012.22;5114928;28;20028;-49
2023/08/17 00:52:58;;;;;;;4.70;2.53;;;;;;;16.82;100.00;101991.34;5114572;28;20104;-49
2023/08/17 00:55:24;;;;;;;5.13;2.58;;;;;;;16.85;100.00;102012.50;5114990;28;20039;-48
2023/08/17 00:57:51;;;;;;;7.65;2.70;;;;;;;16.38;100.00;101928.41;5116100;28;20031;-50
2023/08/17 01:00:17;;;;;;;4.72;2.40;;;;;;;16.35;100.00;101929.38;5097657;28;20066;-50
2023/08/17 01:02:42;;;;;;;5.45;2.47;;;;;;;16.32;100.00;101930.38;5115662;28;20043;-48
2023/08/17 01:05:08;;;;;;;6.18;2.50;;;;;;;16.52;100.00;101960.66;5114157;28;20039;-45
2023/08/17 01:07:34;;;;;;;6.43;2.60;;;;;;;16.78;100.00;102019.00;5115587;27;20040;-47
2023/08/17 01:09:59;;;;;;;3.10;2.30;;;;;;;16.36;100.00;101939.09;5114565;28;20035;-49
2023/08/17 01:12:26;;;;;;;6.20;2.28;;;;;;;16.79;100.00;102028.69;5115917;28;20116;-47
2023/08/17 01:15:14;;;;;;;5.90;2.85;;;;;;;16.73;100.00;102007.66;5115456;28;20043;-47
2023/08/17 01:17:43;;;;;;;3.10;2.40;;;;;;;16.69;100.00;102004.28;5113961;28;20027;-48
2023/08/17 01:20:12;;;;;;;3.63;2.13;;;;;;;16.31;100.00;101933.13;5113978;28;20032;-46
2023/08/17 01:22:41;;;;;;;5.47;2.33;;;;;;;16.33;100.00;101933.91;5114460;28;20028;-47
2023/08/17 01:25:07;;;;;;;4.95;2.65;;;;;;;16.73;100.00;102002.34;5114141;28;20028;-47
2023/08/17 01:27:44;;;;;;;3.88;2.60;;;;;;;16.29;100.00;101921.66;5114949;28;20055;-47
2023/08/17 01:30:11;;;;;;;6.38;3.00;;;;;;;16.77;100.00;102019.91;5114957;28;20108;-47
2023/08/17 01:32:48;;;;;;;4.63;2.33;;;;;;;16.76;100.00;102010.19;5114739;28;20039;-50
2023/08/17 01:35:22;;;;;;;7.72;2.75;;;;;;;16.66;100.00;101999.09;5115258;28;20027;-48
2023/08/17 01:37:50;;;;;;;6.05;2.47;;;;;;;16.26;100.00;101927.97;5115423;28;20043;-46
2023/08/17 01:40:17;;;;;;;3.38;2.33;;;;;;;16.63;100.00;101999.19;5113732;28;20544;-46
2023/08/17 01:42:43;;;;;;;6.32;2.67;;;;;;;16.20;100.00;101941.47;5113773;28;20032;-46
2023/08/17 01:45:09;;;;;;;4.40;2.40;;;;;;;16.45;100.00;101980.41;5112828;28;20062;-46
2023/08/17 01:47:35;;;;;;;5.32;2.38;;;;;;;16.57;100.00;102010.06;5113467;28;20043;-49
2023/08/17 01:50:00;;;;;;;3.50;2.22;;;;;;;16.53;100.00;102020.84;5113740;28;20412;-46
2023/08/17 01:52:29;;;;;;;5.18;2.35;;;;;;;16.48;100.00;101985.59;5114954;28;20031;-48
2023/08/17 01:54:54;;;;;;;6.97;2.65;;;;;;;16.09;100.00;101917.13;5114580;28;20032;-48
2023/08/17 01:57:19;;;;;;;5.47;2.40;;;;;;;16.40;100.00;101969.97;5115203;28;20126;-47
2023/08/17 01:59:45;;;;;;;10.30;3.05;;;;;;;16.43;100.00;101984.91;5113292;28;20035;-49
2023/08/17 02:02:11;;;;;;;4.43;2.80;;;;;;;15.89;100.00;101898.41;5113586;28;20032;-46
2023/08/17 02:04:37;;;;;;;4.38;3.08;;;;;;;16.42;100.00;102001.78;5114323;28;20441;-49
2023/08/17 02:07:02;;;;;;;4.43;2.58;;;;;;;16.39;100.00;101992.13;5112897;28;20127;-46
2023/08/17 02:09:28;;;;;;;5.25;2.78;;;;;;;16.35;100.00;101995.81;5114439;28;20032;-48
2023/08/17 02:11:53;;;;;;;7.63;3.20;;;;;;;15.93;100.00;101928.38;5113303;28;20035;-47
2023/08/17 02:14:18;;;;;;;5.55;2.95;;;;;;;16.04;100.00;101950.09;5113178;28;20039;-46
2023/08/17 02:16:44;;;;;;;6.07;3.03;;;;;;;15.76;100.00;101905.13;5114397;28;20036;-46
2023/08/17 02:19:09;;;;;;;4.82;2.63;;;;;;;16.15;100.00;101970.00;5114406;28;20533;-49
2023/08/17 02:21:34;;;;;;;6.90;3.35;;;;;;;15.71;100.00;101902.63;5114304;28;20024;-50
2023/08/17 02:24:00;;;;;;;3.53;2.60;;;;;;;16.15;100.00;101991.25;5114272;28;20119;-47
2023/08/17 02:26:25;;;;;;;2.60;2.40;;;;;;;15.64;100.00;101901.09;5114424;28;20104;-47
2023/08/17 02:28:50;;;;;;;3.15;2.78;;;;;;;16.09;100.00;101987.97;5113870;28;20082;-46
2023/08/17 02:31:16;;;;;;;4.05;3.20;;;;;;;15.99;100.00;101970.66;5114487;28;20032;-48
2023/08/17 02:33:41;;;;;;;8.38;3.25;;;;;;;16.09;100.00;101994.16;5114059;28;20043;-49
2023/08/17 02:36:07;;;;;;;7.20;3.58;;;;;;;15.73;100.00;101931.78;5114093;28;20046;-49
2023/08/17 02:38:32;;;;;;;6.15;3.55;;;;;;;16.07;100.00;101988.03;5112849;28;20124;-48
2023/08/17 02:40:57;;;;;;;5.20;3.15;;;;;;;15.58;100.00;101914.63;5113901;28;20044;-50
2023/08/17 02:43:23;;;;;;;6.90;3.45;;;;;;;15.98;100.00;101976.88;5113737;28;20398;-47
2023/08/17 02:45:48;;;;;;;7.05;3.78;;;;;;;15.62;100.00;101912.69;5114098;28;20478;-48
2023/08/17 02:48:13;;;;;;;4.85;3.13;;;;;;;15.99;100.00;101970.66;5113916;28;20031;-48
2023/08/17 02:50:39;;;;;;;6.38;3.65;;;;;;;16.04;100.00;101982.84;5113916;28;20039;-50
2023/08/17 02:53:05;;;;;;;5.68;3.38;;;;;;;16.04;100.00;101976.66;5113620;28;20153;-51
2023/08/17 02:55:30;;;;;;;7.32;3.40;;;;;;;15.92;100.00;101969.13;5113659;28;20442;-48
2023/08/17 02:57:55;;;;;;;6.55;3.63;;;;;;;15.89;100.00;101953.31;5095079;28;20035;-50
2023/08/17 03:00:21;;;;;;;4.40;3.53;;;;;;;15.58;100.00;101901.34;5113817;28;20039;-49
2023/08/17 03:02:46;;;;;;;5.97;3.67;;;;;;;16.05;100.00;101981.88;5113594;28;20161;-47
2023/08/17 03:05:11;;;;;;;5.00;3.33;;;;;;;16.06;100.00;101975.66;5113509;28;20478;-52
2023/08/17 03:07:36;;;;;;;7.65;4.47;;;;;;;16.09;100.00;101980.88;5094915;28;20032;-52
2023/08/17 03:10:02;;;;;;;8.48;4.18;;;;;;;16.10;100.00;101979.94;5113304;28;20118;-49
2023/08/17 03:12:27;;;;;;;5.97;3.97;;;;;;;15.48;100.00;101868.09;5113460;28;20409;-46
2023/08/17 03:14:53;;;;;;;7.40;3.85;;;;;;;16.11;100.00;101980.81;5095269;28;20043;-50
2023/08/17 03:17:18;;;;;;;8.23;4.38;;;;;;;16.07;100.00;101976.53;5113508;28;20039;-48
2023/08/17 03:19:43;;;;;;;7.57;4.20;;;;;;;15.57;100.00;101896.97;5112905;28;20044;-48
2023/08/17 03:22:09;;;;;;;6.70;4.45;;;;;;;15.51;100.00;101891.88;5095011;28;20040;-48
2023/08/17 03:24:34;;;;;;;6.78;4.30;;;;;;;15.96;100.00;101976.94;5113096;28;20503;-45
2023/08/17 03:26:59;;;;;;;9.75;4.80;;;;;;;15.41;100.00;101894.88;5094928;28;20035;-50
2023/08/17 03:29:26;;;;;;;8.88;5.00;;;;;;;15.86;100.00;101977.31;5112907;28;20039;-48
2023/08/17 03:31:51;;;;;;;5.47;4.03;;;;;;;15.81;100.00;101972.19;5113145;28;20027;-47
2023/08/17 03:34:16;;;;;;;8.73;4.82;;;;;;;15.79;100.00;101973.16;5112761;28;20114;-49
2023/08/17 03:36:42;;;;;;;6.15;4.47;;;;;;;15.74;100.00;101978.63;5113124;28;20173;-49
2023/08/17 03:39:07;;;;;;;8.23;4.70;;;;;;;15.15;100.00;101871.91;5112797;28;20106;-45
2023/08/17 03:41:32;;;;;;;5.55;4.28;;;;;;;15.71;100.00;101973.41;5112997;28;20031;-47
2023/08/17 03:43:58;;;;;;;7.10;4.50;;;;;;;15.69;100.00;101957.56;5112222;28;20031;-46
2023/08/17 03:46:23;;;;;;;7.50;4.70;;;;;;;15.61;100.00;101950.78;5112634;28;20460;-48
2023/08/17 03:48:48;;;;;;;5.40;3.30;;;;;;;15.68;100.00;101966.44;5112775;28;20035;-49
2023/08/17 03:51:14;;;;;;;5.38;3.83;;;;;;;15.08;100.00;101871.28;5112906;28;20110;-48
2023/08/17 03:53:39;;;;;;;5.00;3.55;;;;;;;15.69;100.00;101983.22;5112559;28;20063;-48
2023/08/17 03:56:04;;;;;;;5.05;3.80;;;;;;;15.69;100.00;101969.97;5112740;28;20059;-49
2023/08/17 03:58:34;;;;;;;6.50;3.65;;;;;;;15.21;100.00;101885.81;5112591;28;20027;-48
2023/08/17 04:00:59;;;;;;;5.80;2.78;;;;;;;15.67;100.00;101964.69;5112659;28;20043;-47
2023/08/17 04:03:24;;;;;;;4.80;3.40;;;;;;;15.23;100.00;101886.63;5112611;28;20028;-51
2023/08/17 04:05:50;;;;;;;3.88;3.25;;;;;;;15.43;100.00;101922.22;5112556;28;20103;-46
2023/08/17 04:08:15;;;;;;;7.22;3.70;;;;;;;15.59;100.00;101945.53;5111741;28;20035;-48
2023/08/17 04:10:40;;;;;;;4.65;3.28;;;;;;;15.60;100.00;101962.31;5094135;28;20043;-52
2023/08/17 04:13:06;;;;;;;5.63;3.47;;;;;;;15.14;100.00;101886.97;5112127;28;20036;-49
2023/08/17 04:15:31;;;;;;;6.03;3.15;;;;;;;15.38;100.00;101929.47;5112650;28;20032;-47
2023/08/17 04:17:56;;;;;;;3.97;3.40;;;;;;;15.56;100.00;101966.88;5112248;28;20023;-47
2023/08/17 04:20:22;;;;;;;9.88;4.47;;;;;;;15.56;100.00;101966.00;5112005;28;20046;-49
2023/08/17 04:22:48;;;;;;;6.63;3.50;;;;;;;15.39;100.00;101937.38;5112459;28;20162;-47
2023/08/17 04:25:13;;;;;;;4.43;3.60;;;;;;;15.56;100.00;101966.00;5112302;28;20035;-52
2023/08/17 04:27:38;;;;;;;6.18;3.83;;;;;;;15.48;100.00;101952.13;5111999;28;20027;-46
2023/08/17 04:30:04;;;;;;;4.00;3.13;;;;;;;15.19;100.00;101897.41;5112346;28;20110;-45
2023/08/17 04:32:30;;;;;;;6.03;3.47;;;;;;;15.13;100.00;101871.97;5112184;28;20556;-45
2023/08/17 04:34:55;;;;;;;5.80;3.30;;;;;;;15.71;100.00;101965.47;5112091;28;20047;-45
2023/08/17 04:37:20;;;;;;;6.35;3.60;;;;;;;15.29;100.00;101887.34;5112058;28;20032;-46
2023/08/17 04:39:48;;;;;;;5.47;3.70;;;;;;;15.73;100.00;101950.38;5112125;28;20043;-46
2023/08/17 04:42:13;;;;;;;5.93;3.75;;;;;;;15.43;100.00;101888.59;5112141;28;20031;-47
2023/08/17 04:44:38;;;;;;;6.85;3.80;;;;;;;15.99;100.00;101970.66;5093933;28;20032;-48
2023/08/17 04:47:05;;;;;;;7.28;3.75;;;;;;;15.60;100.00;101888.00;5111908;28;20482;-45
2023/08/17 04:49:30;;;;;;;5.90;3.05;;;;;;;15.63;100.00;101882.59;5112226;28;20028;-47
2023/08/17 04:51:56;;;;;;;5.15;3.20;;;;;;;15.67;100.00;101894.84;5111974;28;20043;-51
2023/08/17 04:54:21;;;;;;;4.57;3.03;;;;;;;16.22;100.00;101966.22;5111911;28;20023;-48
2023/08/17 04:56:46;;;;;;;7.68;2.83;;;;;;;15.88;100.00;101893.19;5111939;28;20035;-46
2023/08/17 04:59:11;;;;;;;5.47;3.38;;;;;;;16.33;100.00;101964.00;5111790;28;20024;-44
2023/08/17 05:01:37;;;;;;;4.70;2.60;;;;;;;16.39;100.00;101964.69;5111709;28;20036;-46
2023/08/17 05:04:03;;;;;;;6.22;2.60;;;;;;;16.38;100.00;101957.63;5093473;28;20067;-45
2023/08/17 05:06:29;;;;;;;3.70;1.98;;;;;;;16.01;100.00;101884.69;5111776;28;20108;-49
2023/08/17 05:08:54;;;;;;;5.50;2.30;;;;;;;16.01;100.00;101871.41;5111505;28;20467;-45
2023/08/17 05:11:19;;;;;;;3.75;1.83;;;;;;;16.46;100.00;101950.25;5111774;28;20467;-50
2023/08/17 05:13:45;;;;;;;4.93;2.20;;;;;;;16.48;100.00;101945.72;5093247;28;20104;-47
2023/08/17 05:16:10;;;;;;;3.65;1.83;;;;;;;16.53;100.00;101960.56;5093881;28;20061;-47
2023/08/17 05:18:36;;;;;;;4.38;1.88;;;;;;;16.37;100.00;101930.22;5113268;28;20073;-46
2023/08/17 05:21:01;;;;;;;2.67;1.75;;;;;;;16.48;100.00;101959.03;5115441;28;20079;-50
2023/08/17 05:23:26;;;;;;;3.75;1.98;;;;;;;16.22;100.00;101915.75;5115269;28;20063;-49
2023/08/17 05:25:52;;;;;;;4.93;2.40;;;;;;;16.33;100.00;101952.50;5115334;28;20052;-51
2023/08/17 05:28:17;;;;;;;5.18;2.30;;;;;;;15.90;100.00;101878.91;5096792;28;20063;-49
2023/08/17 05:30:43;;;;;;;5.15;1.98;;;;;;;15.86;100.00;101877.28;5115616;28;20376;-51
2023/08/17 05:33:08;;;;;;;2.70;2.20;;;;;;;15.83;100.00;101873.88;5115017;28;20415;-46
2023/08/17 05:35:34;;;;;;;3.97;2.10;;;;;;;15.83;100.00;101874.75;5114957;28;20044;-48
2023/08/17 05:37:59;;;;;;;6.07;2.15;;;;;;;16.15;100.00;101926.63;5096550;28;20039;-47
2023/08/17 05:40:25;;;;;;;4.65;2.10;;;;;;;16.36;100.00;101949.72;5114713;28;20040;-45
2023/08/17 05:42:50;;;;;;;3.30;2.20;;;;;;;16.25;100.00;101926.25;5096600;28;20490;-48
2023/08/17 05:45:16;;;;;;;7.15;2.45;;;;;;;16.50;100.00;101958.03;5114966;28;20035;-52
2023/08/17 05:47:41;;;;;;;3.22;2.28;;;;;;;16.10;100.00;101871.06;5114742;28;20156;-46
2023/08/17 05:50:07;;;;;;;4.50;2.20;;;;;;;16.24;100.00;101886.44;5114910;28;20046;-47
2023/08/17 05:52:32;;;;;;;6.50;3.05;;;;;;;16.26;100.00;101880.13;5115053;28;20028;-47
2023/08/17 05:54:57;;;;;;;2.95;1.90;;;;;;;16.84;100.00;101966.41;5114531;28;20070;-47
2023/08/17 05:57:23;;;;;;;5.90;2.65;;;;;;;16.44;100.00;101878.53;5114914;28;20043;-49
2023/08/17 05:59:48;;;;;;;6.20;2.08;;;;;;;16.71;100.00;101914.69;5096401;28;20044;-48
2023/08/17 06:02:14;;;;;;;5.47;2.33;;;;;;;17.17;100.00;101982.78;5114937;28;20457;-47
2023/08/17 06:04:39;;;;;;;4.28;2.03;;;;;;;16.94;100.00;101928.81;5114616;28;20558;-48
2023/08/17 06:07:04;;;;;;;6.68;2.35;;;;;;;17.31;100.00;101992.84;5096360;28;20047;-46
2023/08/17 06:09:30;;;;;;;7.38;2.83;;;;;;;17.33;100.00;101967.06;5079078;28;20490;-48
2023/08/17 06:11:55;;;;;;;3.42;2.38;;;;;;;17.19;100.00;101932.19;5114859;28;20039;-48
2023/08/17 06:14:21;;;;;;;4.72;2.85;;;;;;;17.53;100.00;101987.50;5114552;28;20118;-49
2023/08/17 06:16:46;;;;;;;7.50;2.63;;;;;;;17.22;100.00;101922.25;5113921;28;20032;-46
2023/08/17 06:19:12;;;;;;;5.15;2.50;;;;;;;17.57;100.00;101987.31;5096273;28;20042;-50
2023/08/17 06:21:37;;;;;;;4.25;2.22;;;;;;;17.17;100.00;101924.25;5114954;28;20035;-49
2023/08/17 06:24:04;;;;;;;4.78;2.53;;;;;;;17.59;100.00;101993.47;5114311;28;20399;-46
2023/08/17 06:26:29;;;;;;;2.70;2.15;;;;;;;17.59;100.00;101993.47;5113755;28;20038;-47
2023/08/17 06:28:54;;;;;;;4.85;2.30;;;;;;;17.21;100.00;101933.84;5113743;28;20031;-45
2023/08/17 06:31:20;;;;;;;4.85;2.50;;;;;;;17.58;100.00;101999.72;5095658;28;20032;-49
2023/08/17 06:33:45;;;;;;;5.03;2.33;;;;;;;17.62;100.00;101997.78;5114345;28;20451;-47
2023/08/17 06:36:13;;;;;;;5.47;2.42;;;;;;;17.30;100.00;101940.59;5113804;28;20062;-49
2023/08/17 06:38:38;;;;;;;7.53;2.60;;;;;;;17.14;100.00;101911.09;5113990;28;20043;-50
2023/08/17 06:41:03;;;;;;;6.22;3.15;;;;;;;17.65;100.00;101987.00;5113761;28;20040;-47
2023/08/17 06:43:29;;;;;;;6.82;2.60;;;;;;;17.72;100.00;102002.63;5114024;28;20118;-51
2023/08/17 06:45:56;;;;;;;4.88;2.47;;;;;;;17.34;100.00;101928.84;5113757;28;20043;-50
2023/08/17 06:48:21;;;;;;;4.78;2.58;;;;;;;17.40;100.00;101924.13;5114066;28;20063;-48
2023/08/17 06:50:46;;;;;;;4.47;2.38;;;;;;;17.44;100.00;101930.19;5114333;28;20436;-44
2023/08/17 06:53:12;;;;;;;4.88;2.53;;;;;;;17.87;100.00;102004.63;5113814;28;20027;-46
2023/08/17 06:55:37;;;;;;;3.83;2.20;;;;;;;17.83;100.00;101988.88;5113311;28;20383;-47
2023/08/17 06:58:02;;;;;;;7.72;3.00;;;;;;;17.97;100.00;101999.78;5113758;28;20493;-49
2023/08/17 07:00:28;;;;;;;6.55;2.38;;;;;;;17.60;100.00;101933.94;5113738;28;20398;-45
2023/08/17 07:02:53;;;;;;;5.70;2.60;;;;;;;18.09;100.00;101993.91;5113264;28;20063;-48
2023/08/17 07:05:18;;;;;;;5.57;2.55;;;;;;;17.59;100.00;101907.41;5113680;28;20039;-49
2023/08/17 07:07:44;;;;;;;7.97;2.88;;;;;;;18.24;100.00;102008.31;5113444;28;20494;-46
2023/08/17 07:10:12;;;;;;;3.83;2.33;;;;;;;18.05;100.00;101951.47;5113093;28;20039;-45
2023/08/17 07:12:38;;;;;;;4.47;2.38;;;;;;;18.09;100.00;101926.41;5113214;28;20048;-49
2023/08/17 07:15:05;;;;;;;6.70;2.75;;;;;;;18.62;100.00;101995.91;5113569;28;20038;-46
2023/08/17 07:17:30;;;;;;;5.13;2.30;;;;;;;18.47;100.00;101949.47;5113080;28;20074;-49
2023/08/17 07:19:56;;;;;;;5.70;2.22;;;;;;;18.92;100.00;102005.09;5113055;28;20067;-48
2023/08/17 07:22:21;;;;;;;8.07;2.60;;;;;;;18.94;100.00;102003.22;5095169;28;20027;-49
2023/08/17 07:24:46;;;;;;;3.15;2.10;;;;;;;19.17;100.00;102002.09;5112891;28;20035;-49
2023/08/17 07:27:12;;;;;;;9.88;2.47;;;;;;;19.64;100.00;102006.78;5112972;28;20055;-46
2023/08/17 07:29:37;;;;;;;7.68;2.45;;;;;;;20.26;100.00;102021.34;5112949;28;20059;-50
2023/08/17 07:32:03;;;;;;;8.05;2.58;;;;;;;20.01;100.00;101949.59;5113157;28;20024;-46
2023/08/17 07:34:30;;;;;;;7.93;2.92;;;;;;;20.64;100.00;102028.13;5113021;28;20131;-46
2023/08/17 07:36:55;;;;;;;7.47;2.42;;;;;;;20.35;100.00;101969.16;5112740;28;20027;-48
2023/08/17 07:39:20;;;;;;;3.95;2.50;;;;;;;20.07;100.00;101969.78;5112487;28;20407;-49
2023/08/17 07:41:46;;;;;;;6.38;2.45;;;;;;;20.35;100.00;102034.22;5112091;28;20036;-47
2023/08/17 07:44:11;;;;;;;5.03;1.90;;;;;;;20.14;100.00;101966.69;5112969;28;20379;-51
2023/08/17 07:46:37;;;;;;;4.20;1.90;;;;;;;20.40;100.00;101964.44;5112609;28;20439;-48
2023/08/17 07:49:03;;;;;;;4.60;1.88;;;;;;;20.66;100.00;101956.69;5094348;28;20047;-51
2023/08/17 07:51:30;;;;;;;5.95;1.55;;;;;;;21.37;100.00;102015.06;5112742;28;20402;-47
2023/08/17 07:53:56;;;;;;;5.55;1.80;;;;;;;21.21;100.00;101962.41;5112444;28;20035;-50
2023/08/17 07:56:21;;;;;;;4.07;1.88;;;;;;;21.63;100.00;102022.41;5112859;28;20503;-46
2023/08/17 07:58:46;;;;;;;3.50;1.63;;;;;;;21.00;100.00;101902.06;5112598;28;20030;-48
2023/08/17 08:01:11;;;;;;;4.10;2.05;;;;;;;21.39;100.00;101984.56;5112405;28;20114;-49
2023/08/17 08:03:37;;;;;;;3.45;2.00;;;;;;;21.88;100.00;102006.63;5112647;28;20114;-48
2023/08/17 08:06:02;;;;;;;3.63;1.60;;;;;;;22.16;100.00;102022.72;5112339;28;20072;-50
2023/08/17 08:08:27;;;;;;;6.57;1.77;;;;;;;22.20;100.00;102035.00;5093690;28;20067;-50
2023/08/17 08:10:53;;;;;;;6.15;2.00;;;;;;;21.94;100.00;101974.09;5112619;28;20491;-46
2023/08/17 08:13:18;;;;;;;3.58;1.63;;;;;;;22.37;100.00;101985.66;5094114;28;20475;-49
2023/08/17 08:15:43;;;;;;;3.33;1.65;;;;;;;22.71;100.00;102025.50;5108995;28;20378;-49
2023/08/17 08:18:09;;;;;;;4.18;1.40;;;;;;;22.71;100.00;101944.97;5110074;28;20389;-49
2023/08/17 08:20:34;;;;;;;3.53;1.52;;;;;;;23.04;100.00;102021.59;5093034;28;20031;-48
2023/08/17 08:23:00;;;;;;;2.65;1.35;;;;;;;22.72;100.00;102029.06;5093408;28;20130;-52
2023/08/17 08:25:25;;;;;;;4.07;1.40;;;;;;;22.52;100.00;102029.44;5112123;28;20024;-49
2023/08/17 08:27:50;;;;;;;4.25;1.58;;;;;;;22.36;100.00;101962.47;5112112;28;20462;-50
2023/08/17 08:30:18;;;;;;;5.05;2.00;;;;;;;22.25;100.00;101962.28;5112303;28;20527;-46
2023/08/17 08:32:43;;;;;;;3.97;1.58;;;;;;;22.27;100.00;102028.28;5112299;28;20028;-51
2023/08/17 08:35:08;;;;;;;2.60;1.35;;;;;;;22.68;100.00;102020.31;5110869;28;20096;-50
2023/08/17 08:37:34;;;;;;;6.38;2.08;;;;;;;23.14;100.00;102017.34;5110357;28;20046;-53
2023/08/17 08:39:59;;;;;;;4.53;1.80;;;;;;;23.32;100.00;102016.97;5111689;28;20039;-49
2023/08/17 08:42:25;;;;;;;7.50;2.17;;;;;;;22.62;100.00;101953.59;5111468;28;20028;-48
2023/08/17 08:44:50;;;;;;;5.05;1.80;;;;;;;23.12;100.00;101995.94;5111704;28;20058;-48
2023/08/17 08:47:17;;;;;;;3.38;1.48;;;;;;;23.26;100.00;102003.09;5090246;28;20071;-48
2023/08/17 08:49:55;;;;;;;7.00;1.95;;;;;;;23.38;100.00;101951.22;5090083;28;20527;-52
2023/08/17 08:52:23;;;;;;;4.85;1.80;;;;;;;23.21;100.00;101949.66;5090316;28;20024;-47
2023/08/17 08:54:51;;;;;;;6.78;1.70;;;;;;;23.25;100.00;101969.13;5094159;28;20043;-50
2023/08/17 08:57:17;;;;;;;3.55;1.48;;;;;;;23.81;100.00;102006.47;5095723;28;20476;-48
2023/08/17 08:59:45;;;;;;;4.45;1.73;;;;;;;23.72;100.00;101968.59;5095354;28;20159;-48
2023/08/17 09:02:14;;;;;;;3.55;1.92;;;;;;;23.45;100.00;101945.34;5095790;28;20498;-47
2023/08/17 09:04:40;;;;;;;7.43;1.80;;;;;;;24.05;100.00;101944.72;5095505;28;20119;-47
2023/08/17 09:07:06;;;;;;;5.43;2.05;;;;;;;24.61;100.00;101929.84;5094430;28;20463;-48
2023/08/17 09:09:31;;;;;;;4.85;1.73;;;;;;;25.14;100.00;102007.56;5095608;28;20064;-52
2023/08/17 09:11:57;;;;;;;4.75;1.63;;;;;;;24.13;100.00;101915.47;5094457;28;20028;-47
2023/08/17 09:14:22;;;;;;;2.55;1.45;;;;;;;24.47;100.00;101949.72;5095477;28;20123;-48
2023/08/17 09:16:47;;;;;;;3.78;1.65;;;;;;;25.22;100.00;102015.06;5095244;28;20078;-44
2023/08/17 09:19:13;;;;;;;4.30;1.50;;;;;;;24.67;100.00;101940.16;5095037;28;20077;-50
2023/08/17 09:21:38;;;;;;;6.15;1.60;;;;;;;24.63;100.00;101950.28;5094258;28;20032;-49
2023/08/17 09:24:04;;;;;;;4.55;1.80;;;;;;;24.69;100.00;101943.63;5095459;28;20462;-48
2023/08/17 09:26:33;;;;;;;2.70;1.30;;;;;;;25.65;100.00;102008.16;5093861;28;20032;-51
2023/08/17 09:28:59;;;;;;;4.43;1.50;;;;;;;25.43;100.00;101934.41;5094865;28;20467;-50
2023/08/17 09:31:24;;;;;;;4.15;1.52;;;;;;;25.77;100.00;101965.91;5094901;28;20491;-47
2023/08/17 09:33:50;;;;;;;5.22;1.67;;;;;;;26.34;100.00;102005.44;5094873;28;20032;-45
2023/08/17 09:36:20;;;;;;;3.60;1.30;;;;;;;25.60;100.00;101951.00;5095319;28;20390;-50
2023/08/17 09:38:48;;;;;;;3.58;1.60;;;;;;;25.30;100.00;101920.16;5094547;28;20035;-52
2023/08/17 09:41:13;;;;;;;4.07;1.45;;;;;;;25.96;100.00;101979.66;5093706;28;20416;-51
2023/08/17 09:43:39;;;;;;;6.05;1.80;;;;;;;26.01;100.00;101936.09;5094983;28;20025;-48
2023/08/17 09:46:04;;;;;;;2.40;1.40;;;;;;;26.22;100.00;101929.88;5102252;28;20043;-50
2023/08/17 09:48:30;;;;;;;4.88;1.70;;;;;;;26.11;100.00;101997.31;5114786;28;20114;-46
2023/08/17 09:50:57;;;;;;;3.40;1.58;;;;;;;26.42;100.00;101981.38;5096810;28;20391;-48
2023/08/17 09:53:22;;;;;;;3.97;1.88;;;;;;;26.44;100.00;101920.91;5115205;28;20034;-45
2023/08/17 09:55:48;;;;;;;4.90;1.70;;;;;;;27.12;100.00;101995.38;5115190;28;20036;-46
2023/08/17 09:58:17;;;;;;;2.45;1.13;;;;;;;26.73;100.00;101932.00;5114914;28;20471;-51
2023/08/17 10:00:50;;;;;;;4.22;2.10;;;;;;;25.99;100.00;101909.25;5114545;28;20076;-52
2023/08/17 10:03:16;;;;;;;3.50;1.98;;;;;;;26.32;100.00;101986.69;5115067;28;20050;-48
2023/08/17 10:05:43;;;;;;;3.53;1.70;;;;;;;25.68;100.00;101975.56;5095695;28;20028;-45
2023/08/17 10:08:11;;;;;;;4.00;2.03;;;;;;;24.79;100.00;101976.97;5114623;28;20480;-48
2023/08/17 10:10:44;;;;;;;4.38;2.25;;;;;;;24.42;100.00;101972.56;5096410;28;20466;-51
2023/08/17 10:13:24;;;;;;;7.65;2.05;;;;;;;24.11;100.00;101979.25;5114757;28;20028;-48
2023/08/17 10:16:05;;;;;;;4.90;1.85;;;;;;;24.39;100.00;101960.19;5114823;28;20019;-47
2023/08/17 10:18:37;;;;;;;3.47;1.90;;;;;;;25.10;100.00;101959.41;5114530;28;20027;-47
2023/08/17 10:21:06;;;;;;;5.72;2.22;;;;;;;25.38;100.00;101985.13;5114605;28;20111;-52
2023/08/17 10:23:32;;;;;;;3.65;2.17;;;;;;;25.04;100.00;101963.41;5114224;28;20118;-54
2023/08/17 10:25:57;;;;;;;5.38;2.20;;;;;;;25.14;100.00;101960.88;5096050;28;20118;-51
2023/08/17 10:28:24;;;;;;;8.80;2.25;;;;;;;25.91;100.00;101954.88;5096027;28;20059;-53
2023/08/17 10:30:49;;;;;;;5.57;2.45;;;;;;;26.41;100.00;101953.56;5078907;28;20032;-53
2023/08/17 10:33:15;;;;;;;6.20;2.28;;;;;;;26.42;100.00;101922.84;5096162;28;20039;-51
2023/08/17 10:35:41;;;;;;;5.28;2.20;;;;;;;26.40;100.00;101923.97;5095971;28;20023;-57
2023/08/17 10:38:07;;;;;;;4.15;2.28;;;;;;;26.98;100.00;101976.75;5113814;28;20112;-55
2023/08/17 10:40:36;;;;;;;7.05;2.40;;;;;;;25.67;100.00;101902.88;5095410;28;20031;-51
2023/08/17 10:43:02;;;;;;;5.95;2.22;;;;;;;25.55;100.00;101896.59;5078849;28;20409;-51
2023/08/17 10:45:34;;;;;;;4.32;2.03;;;;;;;25.81;100.00;101966.50;5114050;28;20057;-53
2023/08/17 10:48:26;;;;;;;4.45;2.55;;;;;;;26.39;100.00;101971.69;5113636;28;20499;-54
2023/08/17 10:51:00;;;;;;;6.20;2.20;;;;;;;26.09;100.00;101975.00;5082784;28;20058;-52
2023/08/17 10:53:25;;;;;;;5.75;2.58;;;;;;;26.05;100.00;101964.56;5095776;28;20474;-48
2023/08/17 10:55:57;;;;;;;3.22;2.28;;;;;;;25.79;100.00;101906.44;5095633;28;20050;-55
2023/08/17 10:58:22;;;;;;;5.85;2.47;;;;;;;26.04;100.00;101971.78;5113451;28;20043;-53
2023/08/17 11:00:54;;;;;;;4.05;2.53;;;;;;;25.77;100.00;101903.00;5113340;28;20047;-49
2023/08/17 11:03:20;;;;;;;4.30;2.58;;;;;;;26.17;100.00;101987.91;5113784;28;20043;-53
2023/08/17 11:05:52;;;;;;;4.28;2.33;;;;;;;26.23;100.00;101969.41;5095703;28;20232;-50
2023/08/17 11:08:27;;;;;;;3.97;2.05;;;;;;;26.20;100.00;101983.13;5113456;28;20036;-47
2023/08/17 11:11:06;;;;;;;4.65;2.75;;;;;;;26.58;100.00;101962.97;5113575;28;20027;-52
2023/08/17 11:13:34;;;;;;;4.97;2.30;;;;;;;27.27;100.00;101970.63;5113571;28;20102;-52